Time;durP1;ratioP1;P1;durP2;ratioP2;P2;SDS_P1;SDS_P2;PMS_P1;PMS_P2;Temp;Humidity;BMP_temperature;BMP_pressure;BME280_temperature;BME280_humidity;BME280_pressure;Samples;Min_cycle;Max_cycle;Signal;HPM_P1;HPM_P2
2021/11/15 00:01:17;;;;;;;23.03;15.20;;;9.90;99.90;;;;;;4990459;28;20038;-88
2021/11/15 00:03:45;;;;;;;21.60;15.17;;;9.90;99.90;;;;;;4990861;28;20104;-88
2021/11/15 00:06:11;;;;;;;22.83;15.20;;;9.90;99.90;;;;;;4974544;28;20022;-88
2021/11/15 00:08:36;;;;;;;22.53;15.00;;;9.90;99.90;;;;;;4974455;28;20041;-88
2021/11/15 00:11:02;;;;;;;22.03;15.10;;;9.90;99.90;;;;;;4973762;28;20034;-88
2021/11/15 00:13:28;;;;;;;20.13;13.97;;;9.80;99.90;;;;;;4990619;28;20057;-88
2021/11/15 00:15:54;;;;;;;23.00;14.83;;;9.90;99.90;;;;;;4974054;28;20131;-88
2021/11/15 00:18:19;;;;;;;24.53;14.43;;;9.80;99.90;;;;;;4974199;28;20117;-87
2021/11/15 00:20:45;;;;;;;18.57;12.60;;;9.90;99.90;;;;;;4989916;28;20099;-88
2021/11/15 00:23:12;;;;;;;19.30;13.03;;;9.90;99.90;;;;;;4990402;28;20036;-87
2021/11/15 00:25:38;;;;;;;20.43;14.33;;;9.90;99.90;;;;;;4974039;28;20121;-88
2021/11/15 00:28:04;;;;;;;23.40;13.90;;;9.90;99.90;;;;;;4974528;28;20034;-87
2021/11/15 00:30:30;;;;;;;19.60;13.40;;;9.80;99.90;;;;;;4989445;28;20030;-87
2021/11/15 00:32:56;;;;;;;21.93;13.10;;;9.80;99.90;;;;;;4973875;28;20479;-87
2021/11/15 00:35:22;;;;;;;21.13;13.83;;;9.80;99.90;;;;;;4974166;28;20022;-88
2021/11/15 00:37:48;;;;;;;20.60;13.40;;;9.80;99.90;;;;;;4974297;28;20034;-88
2021/11/15 00:40:16;;;;;;;21.17;13.40;;;9.80;99.90;;;;;;4974577;28;20034;-87
2021/11/15 00:42:42;;;;;;;19.63;12.57;;;9.80;99.90;;;;;;4993879;28;20491;-88
2021/11/15 00:45:10;;;;;;;20.03;12.50;;;9.80;99.90;;;;;;4977636;28;20085;-87
2021/11/15 00:47:36;;;;;;;20.87;13.20;;;9.80;99.90;;;;;;4977951;28;20165;-87
2021/11/15 00:50:05;;;;;;;20.20;12.60;;;9.80;99.90;;;;;;4993450;28;20533;-88
2021/11/15 00:52:31;;;;;;;20.83;13.32;;;9.80;99.90;;;;;;4977787;28;20069;-88
2021/11/15 00:54:57;;;;;;;20.70;13.13;;;9.80;99.90;;;;;;4993854;28;20066;-88
2021/11/15 00:57:22;;;;;;;18.80;12.63;;;9.80;99.90;;;;;;4977698;28;20027;-87
2021/11/15 00:59:48;;;;;;;20.93;13.63;;;9.80;99.90;;;;;;4993402;28;20423;-88
2021/11/15 01:02:14;;;;;;;20.57;13.50;;;9.70;99.90;;;;;;4977968;28;20053;-88
2021/11/15 01:04:40;;;;;;;18.77;13.37;;;9.70;99.90;;;;;;4993887;28;20121;-88
2021/11/15 01:07:06;;;;;;;19.63;13.17;;;9.70;99.90;;;;;;4977732;28;20419;-88
2021/11/15 01:09:32;;;;;;;19.23;12.33;;;9.70;99.90;;;;;;4977233;28;20523;-87
2021/11/15 01:11:58;;;;;;;18.67;12.97;;;9.70;99.90;;;;;;4977244;28;20371;-88
2021/11/15 01:14:24;;;;;;;19.07;12.93;;;9.70;99.90;;;;;;4994027;28;20035;-87
2021/11/15 01:16:50;;;;;;;18.47;12.53;;;9.70;99.90;;;;;;4977411;28;20035;-88
2021/11/15 01:19:16;;;;;;;19.27;12.70;;;9.70;99.90;;;;;;4992102;28;20112;-88
2021/11/15 01:21:43;;;;;;;18.97;13.13;;;9.70;99.90;;;;;;4977536;28;20037;-87
2021/11/15 01:24:10;;;;;;;18.00;13.10;;;9.70;99.90;;;;;;4977060;28;20035;-88
2021/11/15 01:26:37;;;;;;;19.63;13.33;;;9.70;99.90;;;;;;4977313;28;20089;-88
2021/11/15 01:29:04;;;;;;;17.83;12.70;;;9.70;99.90;;;;;;4992926;28;20034;-87
2021/11/15 01:31:30;;;;;;;18.03;12.10;;;9.70;99.90;;;;;;4993020;28;20026;-87
2021/11/15 01:33:55;;;;;;;19.43;12.57;;;9.60;99.90;;;;;;4993515;28;20132;-87
2021/11/15 01:36:21;;;;;;;18.47;13.20;;;9.60;99.90;;;;;;4976835;28;20034;-88
2021/11/15 01:38:47;;;;;;;19.17;12.30;;;9.60;99.90;;;;;;4976512;28;20034;-89
2021/11/15 01:41:13;;;;;;;19.53;12.97;;;9.60;99.90;;;;;;4976406;28;20031;-87
2021/11/15 01:43:41;;;;;;;18.63;12.67;;;9.60;99.90;;;;;;4992876;28;20046;-88
2021/11/15 01:46:06;;;;;;;18.07;12.43;;;9.70;99.90;;;;;;4976938;28;20031;-88
2021/11/15 01:48:32;;;;;;;19.00;12.33;;;9.70;99.90;;;;;;4976614;28;20679;-88
2021/11/15 01:50:58;;;;;;;20.23;13.70;;;9.70;99.90;;;;;;4975706;28;20511;-88
2021/11/15 01:53:24;;;;;;;18.67;12.50;;;9.60;99.90;;;;;;4991979;28;20499;-89
2021/11/15 01:55:50;;;;;;;18.03;12.67;;;9.60;99.90;;;;;;4992674;28;20340;-87
2021/11/15 01:58:16;;;;;;;19.13;12.57;;;9.60;99.90;;;;;;4992883;28;20156;-89
2021/11/15 02:00:50;;;;;;;19.17;13.20;;;9.70;99.90;;;;;;4992131;28;20081;-89
2021/11/15 02:03:17;;;;;;;19.03;12.93;;;9.60;99.90;;;;;;4972521;28;20034;-88
2021/11/15 02:05:44;;;;;;;19.33;13.17;;;9.60;99.90;;;;;;4975193;28;20035;-87
2021/11/15 02:08:10;;;;;;;18.43;12.33;;;9.60;99.90;;;;;;4960279;28;20065;-88
2021/11/15 02:10:37;;;;;;;21.17;13.50;;;9.60;99.90;;;;;;4959148;28;20164;-89
2021/11/15 02:13:03;;;;;;;21.97;14.73;;;9.60;99.90;;;;;;4976147;28;20452;-88
2021/11/15 02:15:29;;;;;;;20.50;13.63;;;9.60;99.90;;;;;;4959993;28;20411;-88
2021/11/15 02:17:55;;;;;;;21.27;12.97;;;9.60;99.90;;;;;;4960265;28;20038;-88
2021/11/15 02:20:48;;;;;;;20.87;14.27;;;9.60;99.90;;;;;;4959699;28;20034;-88
2021/11/15 02:23:15;;;;;;;21.10;13.63;;;9.60;99.90;;;;;;4957516;28;20042;-88
2021/11/15 02:25:41;;;;;;;18.93;13.23;;;9.60;99.90;;;;;;4959931;28;20398;-88
2021/11/15 02:28:07;;;;;;;21.90;13.63;;;9.60;99.90;;;;;;4975956;28;20092;-88
2021/11/15 02:30:33;;;;;;;23.43;15.07;;;9.60;99.90;;;;;;4975297;28;20434;-88
2021/11/15 02:33:00;;;;;;;21.47;13.57;;;9.60;99.90;;;;;;4959658;28;20482;-88
2021/11/15 02:35:27;;;;;;;21.57;13.87;;;9.60;99.90;;;;;;4959631;28;20030;-88
2021/11/15 02:37:53;;;;;;;22.63;14.57;;;9.50;99.90;;;;;;4959317;28;20092;-88
2021/11/15 02:40:21;;;;;;;18.17;12.07;;;9.50;99.90;;;;;;4958679;28;20069;-88
2021/11/15 02:42:48;;;;;;;20.20;12.67;;;9.50;99.90;;;;;;4975871;28;20031;-88
2021/11/15 02:45:16;;;;;;;22.23;13.53;;;9.50;99.90;;;;;;4975476;28;20035;-88
2021/11/15 02:47:42;;;;;;;22.37;14.23;;;9.50;99.90;;;;;;4975490;28;20367;-87
2021/11/15 02:50:14;;;;;;;22.27;14.53;;;9.60;99.90;;;;;;4958756;28;20077;-88
2021/11/15 02:52:45;;;;;;;22.07;14.60;;;9.40;99.90;;;;;;4975243;28;20196;-88
2021/11/15 02:55:12;;;;;;;21.83;13.80;;;9.50;99.90;;;;;;4958516;28;20045;-88
2021/11/15 02:57:37;;;;;;;23.30;14.93;;;9.50;99.90;;;;;;4974612;28;20160;-88
2021/11/15 03:00:14;;;;;;;23.67;15.30;;;9.40;99.90;;;;;;4973103;28;20125;-88
2021/11/15 03:02:40;;;;;;;27.13;14.77;;;9.40;99.90;;;;;;4974487;28;20513;-88
2021/11/15 03:05:06;;;;;;;24.03;13.67;;;9.40;99.90;;;;;;4958715;28;20057;-88
2021/11/15 03:07:32;;;;;;;24.17;14.67;;;9.40;99.90;;;;;;4959007;28;20285;-88
2021/11/15 03:09:58;;;;;;;25.97;15.20;;;9.40;99.90;;;;;;4957952;28;20125;-88
2021/11/15 03:12:32;;;;;;;24.13;14.13;;;9.40;99.90;;;;;;4974970;28;20030;-88
2021/11/15 03:14:57;;;;;;;23.50;14.23;;;9.40;99.90;;;;;;4991411;28;20036;-88
2021/11/15 03:17:23;;;;;;;23.70;14.63;;;9.40;99.90;;;;;;4959005;28;20026;-88
2021/11/15 03:19:49;;;;;;;25.27;15.07;;;9.40;99.90;;;;;;4958130;28;20450;-88
2021/11/15 03:22:15;;;;;;;24.87;15.23;;;9.40;99.90;;;;;;4958617;28;20161;-88
2021/11/15 03:24:41;;;;;;;23.87;14.87;;;9.40;99.90;;;;;;4975119;28;20034;-88
2021/11/15 03:27:07;;;;;;;26.00;15.63;;;9.40;99.90;;;;;;4958666;28;20034;-88
2021/11/15 03:29:33;;;;;;;23.70;14.33;;;9.40;99.90;;;;;;4974268;28;20478;-87
2021/11/15 03:31:59;;;;;;;24.50;14.53;;;9.40;99.90;;;;;;4958405;28;20060;-88
2021/11/15 03:34:25;;;;;;;23.83;14.17;;;9.40;99.90;;;;;;4958490;28;20037;-88
2021/11/15 03:36:51;;;;;;;23.93;14.77;;;9.40;99.90;;;;;;4958324;28;20030;-89
2021/11/15 03:39:17;;;;;;;29.97;16.90;;;9.40;99.90;;;;;;4974017;28;20071;-88
2021/11/15 03:41:44;;;;;;;28.97;17.67;;;9.40;99.90;;;;;;4958297;28;20126;-88
2021/11/15 03:44:11;;;;;;;25.57;16.00;;;9.40;99.90;;;;;;4992156;28;20045;-88
2021/11/15 03:46:39;;;;;;;26.83;16.00;;;9.40;99.90;;;;;;4958295;28;20065;-88
2021/11/15 03:49:06;;;;;;;28.13;15.43;;;9.40;99.90;;;;;;4974293;28;20073;-88
2021/11/15 03:51:34;;;;;;;25.27;14.97;;;9.30;99.90;;;;;;4974307;28;20026;-88
2021/11/15 03:54:00;;;;;;;25.53;14.87;;;9.40;99.90;;;;;;4958453;28;20037;-87
2021/11/15 03:56:27;;;;;;;25.97;16.00;;;9.40;99.90;;;;;;4958173;28;20391;-87
2021/11/15 03:58:55;;;;;;;26.73;16.13;;;9.40;99.90;;;;;;4973001;28;20101;-88
2021/11/15 04:01:25;;;;;;;25.10;14.33;;;9.40;99.90;;;;;;4973693;28;20034;-87
2021/11/15 04:03:54;;;;;;;26.07;16.43;;;9.40;99.90;;;;;;4958303;28;20542;-87
2021/11/15 04:06:27;;;;;;;24.42;15.15;;;9.40;99.90;;;;;;4957960;28;20344;-88
2021/11/15 04:08:58;;;;;;;26.57;16.03;;;9.40;99.90;;;;;;4974095;28;20089;-87
2021/11/15 04:11:28;;;;;;;27.60;16.60;;;9.40;99.90;;;;;;4958187;28;20038;-88
2021/11/15 04:13:59;;;;;;;28.63;16.27;;;9.40;99.90;;;;;;4957947;28;20114;-87
2021/11/15 04:16:25;;;;;;;29.07;17.50;;;9.40;99.90;;;;;;4977548;28;20105;-88
2021/11/15 04:19:05;;;;;;;26.47;16.33;;;9.30;99.90;;;;;;4961767;28;20458;-88
2021/11/15 04:21:32;;;;;;;27.17;17.00;;;9.40;99.90;;;;;;4978346;28;20428;-84
2021/11/15 04:23:58;;;;;;;29.10;16.70;;;9.40;99.90;;;;;;4962987;28;20037;-87
2021/11/15 04:26:24;;;;;;;29.60;17.57;;;9.40;99.90;;;;;;4981728;28;20030;-86
2021/11/15 04:28:50;;;;;;;28.03;17.03;;;9.40;99.90;;;;;;5014315;28;20172;-88
2021/11/15 04:31:16;;;;;;;31.10;17.77;;;9.40;99.90;;;;;;4980972;28;20124;-87
2021/11/15 04:33:41;;;;;;;30.77;18.03;;;9.40;99.90;;;;;;4980820;28;20069;-86
2021/11/15 04:36:08;;;;;;;29.00;17.47;;;9.40;99.90;;;;;;4981371;28;20034;-86
2021/11/15 04:38:33;;;;;;;29.70;17.53;;;9.40;99.90;;;;;;5014051;28;20083;-89
2021/11/15 04:40:59;;;;;;;28.47;17.60;;;9.50;99.90;;;;;;4980966;28;20033;-89
2021/11/15 04:43:25;;;;;;;31.60;18.90;;;9.40;99.90;;;;;;4997640;28;20034;-89
2021/11/15 04:45:53;;;;;;;30.83;17.60;;;9.40;99.90;;;;;;4981593;28;20030;-87
2021/11/15 04:48:19;;;;;;;23.20;14.90;;;9.40;99.90;;;;;;4981210;28;20044;-89
2021/11/15 04:50:45;;;;;;;28.33;17.03;;;9.40;99.90;;;;;;4980446;28;20030;-88
2021/11/15 04:53:11;;;;;;;32.63;19.07;;;9.40;99.90;;;;;;4997071;28;20470;-89
2021/11/15 04:55:38;;;;;;;32.87;18.60;;;9.40;99.90;;;;;;4980855;28;20026;-89
2021/11/15 04:58:05;;;;;;;29.20;18.00;;;9.40;99.90;;;;;;4980860;28;20574;-89
2021/11/15 05:00:32;;;;;;;31.43;18.77;;;9.40;99.90;;;;;;4980137;28;20038;-89
2021/11/15 05:02:58;;;;;;;31.93;19.93;;;9.40;99.90;;;;;;4981010;28;20076;-88
2021/11/15 05:05:24;;;;;;;30.13;19.10;;;9.40;99.90;;;;;;4996978;28;20117;-89
2021/11/15 05:07:55;;;;;;;32.37;19.60;;;9.40;99.90;;;;;;4980861;28;20176;-89
2021/11/15 05:10:23;;;;;;;35.47;21.77;;;9.40;99.90;;;;;;4980098;28;20098;-89
2021/11/15 05:12:49;;;;;;;35.08;20.85;;;9.30;99.90;;;;;;4996704;28;20505;-89
2021/11/15 05:15:19;;;;;;;30.10;19.40;;;9.40;99.90;;;;;;4996428;28;20379;-88
2021/11/15 05:17:47;;;;;;;32.50;20.40;;;9.30;99.90;;;;;;4980469;28;20160;-89
2021/11/15 05:20:14;;;;;;;34.63;20.60;;;9.40;99.90;;;;;;5012226;28;20088;-89
2021/11/15 05:22:40;;;;;;;32.07;20.80;;;9.40;99.90;;;;;;5014291;28;20390;-89
2021/11/15 05:25:07;;;;;;;32.03;20.07;;;9.40;99.90;;;;;;4980167;28;20117;-89
2021/11/15 05:27:34;;;;;;;33.00;20.50;;;9.40;99.90;;;;;;4995392;28;20152;-89
2021/11/15 05:30:00;;;;;;;34.03;21.10;;;9.30;99.90;;;;;;4980911;28;20057;-86
2021/11/15 05:32:25;;;;;;;34.97;21.67;;;9.30;99.90;;;;;;4965640;28;20488;-88
2021/11/15 05:34:51;;;;;;;31.43;19.87;;;9.30;99.90;;;;;;4976415;28;20069;-85
2021/11/15 05:37:17;;;;;;;32.00;20.57;;;9.30;99.90;;;;;;4974420;28;20034;-85
2021/11/15 05:39:43;;;;;;;33.93;21.43;;;9.30;99.90;;;;;;4960329;28;20039;-87
2021/11/15 05:42:09;;;;;;;31.60;19.23;;;9.30;99.90;;;;;;4973853;28;20034;-86
2021/11/15 05:44:36;;;;;;;31.33;20.37;;;9.30;99.90;;;;;;4960939;28;20034;-86
2021/11/15 05:47:02;;;;;;;36.90;22.00;;;9.40;99.90;;;;;;4973953;28;20472;-87
2021/11/15 05:49:28;;;;;;;35.17;22.20;;;9.40;99.90;;;;;;4957202;28;20125;-88
2021/11/15 05:51:56;;;;;;;37.30;22.43;;;9.30;99.90;;;;;;4957279;28;20444;-89
2021/11/15 05:54:22;;;;;;;35.58;21.48;;;9.30;99.90;;;;;;4958385;28;20023;-87
2021/11/15 05:56:48;;;;;;;32.73;20.30;;;9.30;99.90;;;;;;4957331;28;20034;-86
2021/11/15 05:59:15;;;;;;;32.30;20.10;;;9.30;99.90;;;;;;4954567;28;20121;-84
2021/11/15 06:01:43;;;;;;;35.80;21.60;;;9.30;99.90;;;;;;4973461;28;20031;-83
2021/11/15 06:04:09;;;;;;;33.97;21.07;;;9.30;99.90;;;;;;4974978;28;20089;-83
2021/11/15 06:06:37;;;;;;;33.40;20.97;;;9.30;99.90;;;;;;4973944;28;20097;-89
2021/11/15 06:09:04;;;;;;;35.33;21.40;;;9.30;99.90;;;;;;4956373;28;20042;-87
2021/11/15 06:11:30;;;;;;;33.13;20.87;;;9.30;99.90;;;;;;4955273;28;20039;-88
2021/11/15 06:13:56;;;;;;;32.97;20.70;;;9.30;99.90;;;;;;4970796;28;20042;-89
2021/11/15 06:16:22;;;;;;;38.73;22.40;;;9.30;99.90;;;;;;4970355;28;20387;-89
2021/11/15 06:18:48;;;;;;;36.03;21.67;;;9.30;99.90;;;;;;4970543;28;20038;-89
2021/11/15 06:21:14;;;;;;;35.77;22.27;;;9.30;99.90;;;;;;4954297;28;20308;-89
2021/11/15 06:23:40;;;;;;;35.50;22.33;;;9.30;99.90;;;;;;4954908;28;20075;-89
2021/11/15 06:26:06;;;;;;;37.10;22.30;;;9.30;99.90;;;;;;4972245;28;20058;-89
2021/11/15 06:28:31;;;;;;;35.53;21.30;;;9.30;99.90;;;;;;4956262;28;20034;-89
2021/11/15 06:30:57;;;;;;;37.43;21.03;;;9.30;99.90;;;;;;4954782;28;20039;-89
2021/11/15 06:33:23;;;;;;;33.07;20.40;;;9.30;99.90;;;;;;4955657;28;20034;-89
2021/11/15 06:35:49;;;;;;;31.63;20.00;;;9.30;99.90;;;;;;4955950;28;20379;-89
2021/11/15 06:38:15;;;;;;;33.17;19.73;;;9.20;99.90;;;;;;4971706;28;20143;-89
2021/11/15 06:40:41;;;;;;;32.63;19.40;;;9.20;99.90;;;;;;4973432;28;20054;-89
2021/11/15 06:43:07;;;;;;;31.23;18.30;;;9.20;99.90;;;;;;4955578;28;20427;-90
2021/11/15 06:45:34;;;;;;;28.23;17.90;;;9.20;99.90;;;;;;4971482;28;20094;-89
2021/11/15 06:48:00;;;;;;;28.30;16.90;;;9.20;99.90;;;;;;4956012;28;20035;-89
2021/11/15 06:50:27;;;;;;;29.67;18.43;;;9.20;99.90;;;;;;4971088;28;20126;-89
2021/11/15 06:52:53;;;;;;;32.43;18.77;;;9.20;99.90;;;;;;4956042;28;20035;-89
2021/11/15 06:55:22;;;;;;;27.93;17.30;;;9.10;99.90;;;;;;4956003;28;20098;-89
2021/11/15 06:57:48;;;;;;;31.50;18.15;;;9.20;99.90;;;;;;4971874;28;20518;-88
2021/11/15 07:00:19;;;;;;;27.13;15.90;;;9.10;99.90;;;;;;4978249;28;20114;-86
2021/11/15 07:02:46;;;;;;;37.27;22.23;;;9.20;99.90;;;;;;4982280;28;20089;-89
2021/11/15 07:05:14;;;;;;;34.77;17.50;;;9.90;99.90;;;;;;4988377;28;20030;-90
2021/11/15 07:07:40;;;;;;;27.43;17.00;;;9.90;99.90;;;;;;4993650;28;20030;-90
2021/11/15 07:10:08;;;;;;;28.00;16.90;;;9.90;99.90;;;;;;4974795;28;20031;-90
2021/11/15 07:12:34;;;;;;;27.43;16.33;;;10.10;99.90;;;;;;4992568;28;20134;-85
2021/11/15 07:15:01;;;;;;;30.17;16.93;;;10.30;99.90;;;;;;4991990;28;20179;-87
2021/11/15 07:17:27;;;;;;;29.13;16.53;;;10.20;99.90;;;;;;4975544;28;20061;-87
2021/11/15 07:19:52;;;;;;;27.00;15.87;;;9.90;99.90;;;;;;4975077;28;20436;-86
2021/11/15 07:22:18;;;;;;;32.03;18.50;;;9.80;99.90;;;;;;4975412;28;20065;-87
2021/11/15 07:24:44;;;;;;;33.00;18.60;;;9.70;99.90;;;;;;4975758;28;20428;-87
2021/11/15 07:27:10;;;;;;;36.20;19.67;;;9.60;99.90;;;;;;4975066;28;20121;-85
2021/11/15 07:29:35;;;;;;;37.03;20.30;;;9.50;99.90;;;;;;4974786;28;20476;-86
2021/11/15 07:32:08;;;;;;;34.53;19.70;;;9.40;99.90;;;;;;4975420;28;20086;-85
2021/11/15 07:34:33;;;;;;;38.77;21.53;;;9.40;99.90;;;;;;4994208;28;20034;-81
2021/11/15 07:36:59;;;;;;;44.93;21.87;;;9.30;99.90;;;;;;4994685;28;20027;-82
2021/11/15 07:39:25;;;;;;;38.57;20.77;;;9.30;99.90;;;;;;4995634;28;20034;-80
2021/11/15 07:41:51;;;;;;;37.37;19.80;;;9.30;99.90;;;;;;4997814;28;20045;-80
2021/11/15 07:44:17;;;;;;;35.67;20.63;;;9.20;99.90;;;;;;4997277;28;20030;-80
2021/11/15 07:46:42;;;;;;;36.63;20.13;;;9.30;99.90;;;;;;4997444;28;20034;-82
2021/11/15 07:49:08;;;;;;;41.30;20.57;;;9.30;99.90;;;;;;4995109;28;20026;-85
2021/11/15 07:51:34;;;;;;;36.90;19.90;;;9.20;99.90;;;;;;4992638;28;20030;-83
2021/11/15 07:54:00;;;;;;;36.43;19.67;;;9.30;99.90;;;;;;4981090;28;20038;-83
2021/11/15 07:56:25;;;;;;;31.77;17.57;;;9.20;99.90;;;;;;4997430;28;20038;-83
2021/11/15 07:58:52;;;;;;;31.47;17.40;;;9.20;99.90;;;;;;4994096;28;20030;-85
2021/11/15 08:01:18;;;;;;;33.57;18.57;;;9.20;99.90;;;;;;4977854;28;20029;-83
2021/11/15 08:03:44;;;;;;;31.40;18.07;;;9.20;99.90;;;;;;4978714;28;20062;-81
2021/11/15 08:06:10;;;;;;;32.80;17.77;;;9.20;99.90;;;;;;5000166;28;20030;-83
2021/11/15 08:08:37;;;;;;;35.30;18.73;;;9.10;99.90;;;;;;5001885;28;20132;-84
2021/11/15 08:11:07;;;;;;;32.33;18.63;;;9.10;99.90;;;;;;5002487;28;20045;-83
2021/11/15 08:13:33;;;;;;;34.30;18.97;;;9.10;99.90;;;;;;4996338;28;20069;-83
2021/11/15 08:15:59;;;;;;;35.77;19.63;;;9.10;99.90;;;;;;4994064;28;20061;-84
2021/11/15 08:18:25;;;;;;;35.00;20.10;;;9.10;99.90;;;;;;4996808;28;20487;-84
2021/11/15 08:20:51;;;;;;;39.10;21.10;;;9.10;99.90;;;;;;4999891;28;20053;-83
2021/11/15 08:23:19;;;;;;;39.27;21.37;;;9.10;99.90;;;;;;4991580;28;20034;-83
2021/11/15 08:26:22;;;;;;;38.23;22.03;;;9.10;99.90;;;;;;4990983;28;20068;-84
2021/11/15 08:28:48;;;;;;;39.67;21.00;;;9.10;99.90;;;;;;4973987;28;20030;-84
2021/11/15 08:31:14;;;;;;;40.17;22.23;;;9.10;99.90;;;;;;4992101;28;20418;-84
2021/11/15 08:33:40;;;;;;;41.63;22.70;;;9.10;99.90;;;;;;4974295;28;20046;-83
2021/11/15 08:36:06;;;;;;;42.10;22.63;;;9.10;99.90;;;;;;4991030;28;20026;-83
2021/11/15 08:38:35;;;;;;;39.33;21.10;;;9.10;99.90;;;;;;4990769;28;20022;-83
2021/11/15 08:41:01;;;;;;;40.85;22.05;;;9.10;99.90;;;;;;4989942;28;20027;-84
2021/11/15 08:43:26;;;;;;;42.63;22.67;;;9.10;99.90;;;;;;4990019;28;20510;-84
2021/11/15 08:45:52;;;;;;;42.80;23.77;;;9.10;99.90;;;;;;4989569;28;20302;-85
2021/11/15 08:48:19;;;;;;;46.03;23.80;;;9.20;99.90;;;;;;4990047;28;20034;-84
2021/11/15 08:50:45;;;;;;;43.40;22.77;;;9.20;99.90;;;;;;4990445;28;20041;-84
2021/11/15 08:53:10;;;;;;;44.80;24.07;;;9.20;99.90;;;;;;4990185;28;20379;-85
2021/11/15 08:55:36;;;;;;;42.80;23.07;;;9.20;99.90;;;;;;4990813;28;20384;-83
2021/11/15 08:58:03;;;;;;;47.07;25.07;;;9.20;99.90;;;;;;4992342;28;20464;-82
2021/11/15 09:00:30;;;;;;;43.77;23.27;;;9.10;99.90;;;;;;4992067;28;20030;-82
2021/11/15 09:02:56;;;;;;;44.87;23.67;;;9.20;99.90;;;;;;4997049;28;20073;-82
2021/11/15 09:05:22;;;;;;;45.73;24.57;;;9.20;99.90;;;;;;4996435;28;20038;-80
2021/11/15 09:07:48;;;;;;;44.43;24.70;;;9.20;99.90;;;;;;4996857;28;20396;-83
2021/11/15 09:10:15;;;;;;;46.47;25.37;;;9.20;99.90;;;;;;4996342;28;20064;-80
2021/11/15 09:12:43;;;;;;;48.33;25.50;;;9.20;99.90;;;;;;4996848;28;20579;-81
2021/11/15 09:15:11;;;;;;;46.97;23.93;;;9.20;99.90;;;;;;4997798;28;20064;-84
2021/11/15 09:17:40;;;;;;;41.72;21.67;;;9.20;99.90;;;;;;4980406;28;20394;-82
2021/11/15 09:20:08;;;;;;;36.70;19.63;;;9.20;99.90;;;;;;4994702;28;20029;-82
2021/11/15 09:22:34;;;;;;;36.00;19.27;;;9.30;99.90;;;;;;4994562;28;20029;-80
2021/11/15 09:25:00;;;;;;;38.47;19.60;;;9.30;99.90;;;;;;4995130;28;20034;-82
2021/11/15 09:27:26;;;;;;;37.37;19.73;;;9.20;99.90;;;;;;4985827;28;20097;-80
2021/11/15 09:29:54;;;;;;;36.10;18.13;;;9.20;99.90;;;;;;4961478;28;20035;-80
2021/11/15 09:32:20;;;;;;;34.80;19.07;;;9.20;99.90;;;;;;4995704;28;20026;-79
2021/11/15 09:34:47;;;;;;;34.77;18.03;;;9.10;99.90;;;;;;4977837;28;20069;-80
2021/11/15 09:37:15;;;;;;;35.10;18.57;;;9.20;99.90;;;;;;4976396;28;20447;-79
2021/11/15 09:39:47;;;;;;;32.30;16.77;;;9.20;99.90;;;;;;4992894;28;20045;-79
2021/11/15 09:42:14;;;;;;;34.80;17.50;;;9.20;99.90;;;;;;4979262;28;20092;-79
2021/11/15 09:44:42;;;;;;;32.33;16.57;;;9.20;99.90;;;;;;4979332;28;20581;-79
2021/11/15 09:47:09;;;;;;;29.70;16.53;;;9.20;99.90;;;;;;4996288;28;20036;-79
2021/11/15 09:49:36;;;;;;;30.87;16.43;;;9.10;99.90;;;;;;4980263;28;20320;-80
2021/11/15 09:52:03;;;;;;;28.90;16.30;;;9.20;99.90;;;;;;5014500;28;20041;-80
2021/11/15 09:54:28;;;;;;;28.60;14.77;;;9.10;99.90;;;;;;4996845;28;20539;-80
2021/11/15 09:56:55;;;;;;;26.50;15.10;;;9.20;99.90;;;;;;4996951;28;20026;-79
2021/11/15 09:59:24;;;;;;;28.27;15.40;;;9.20;99.90;;;;;;4980070;28;20037;-80
2021/11/15 10:01:52;;;;;;;;;;;9.10;99.90;;;;;;4997099;28;20525;-80
2021/11/15 10:04:19;;;;;;;25.97;13.80;;;9.20;99.90;;;;;;4996251;28;19909;-80
2021/11/15 10:06:46;;;;;;;23.90;13.13;;;9.10;99.90;;;;;;4981444;28;20045;-79
2021/11/15 10:09:12;;;;;;;25.33;13.67;;;9.10;99.90;;;;;;4996682;28;20053;-80
2021/11/15 10:11:51;;;;;;;20.63;12.43;;;9.10;99.90;;;;;;5012619;28;20072;-80
2021/11/15 10:14:18;;;;;;;25.80;13.13;;;9.10;99.90;;;;;;5013013;28;20144;-80
2021/11/15 10:16:52;;;;;;;21.57;12.20;;;9.10;99.90;;;;;;4968295;28;20042;-79
2021/11/15 10:19:21;;;;;;;21.43;12.37;;;9.10;99.90;;;;;;4994606;28;20030;-79
2021/11/15 10:21:54;;;;;;;23.00;13.18;;;9.10;99.90;;;;;;4960299;28;20428;-83
2021/11/15 10:24:20;;;;;;;28.77;12.60;;;9.10;99.90;;;;;;4994143;28;20037;-81
2021/11/15 10:26:53;;;;;;;22.53;12.83;;;9.10;99.90;;;;;;4977947;28;20030;-82
2021/11/15 10:29:32;;;;;;;22.07;11.77;;;9.10;99.90;;;;;;4993706;28;20023;-81
2021/11/15 10:32:03;;;;;;;19.77;10.98;;;9.10;99.90;;;;;;4977083;28;20030;-80
2021/11/15 10:34:34;;;;;;;21.83;11.67;;;9.10;99.90;;;;;;4977564;28;20034;-80
2021/11/15 10:37:07;;;;;;;21.50;10.87;;;9.10;99.90;;;;;;4977614;28;20026;-81
2021/11/15 10:39:40;;;;;;;19.93;10.87;;;9.10;99.90;;;;;;4990653;28;20080;-79
2021/11/15 10:42:16;;;;;;;19.67;10.60;;;9.10;99.90;;;;;;4994381;28;20057;-81
2021/11/15 10:44:53;;;;;;;22.47;11.00;;;9.10;99.90;;;;;;4976184;28;20030;-82
2021/11/15 10:47:29;;;;;;;20.73;11.17;;;9.10;99.90;;;;;;4976999;28;20076;-83
2021/11/15 10:50:03;;;;;;;20.03;11.33;;;9.10;99.90;;;;;;4960195;28;20034;-82
2021/11/15 10:52:32;;;;;;;20.90;11.40;;;9.10;99.90;;;;;;4993490;28;20038;-82
2021/11/15 10:55:02;;;;;;;19.13;10.98;;;9.10;99.90;;;;;;4976773;28;20146;-80
2021/11/15 10:57:43;;;;;;;19.83;10.90;;;9.10;99.90;;;;;;4961121;28;20038;-80
2021/11/15 11:00:20;;;;;;;21.73;12.63;;;9.10;99.90;;;;;;4993021;28;20045;-80
2021/11/15 11:03:05;;;;;;;21.60;12.03;;;9.20;99.90;;;;;;4994115;28;20395;-79
2021/11/15 11:05:31;;;;;;;21.40;11.30;;;9.20;99.90;;;;;;4977354;28;20426;-80
2021/11/15 11:08:18;;;;;;;23.43;12.50;;;9.20;99.90;;;;;;4977852;28;20037;-83
2021/11/15 11:10:53;;;;;;;22.27;11.73;;;9.20;99.90;;;;;;4975921;28;20030;-81
2021/11/15 11:13:21;;;;;;;21.87;12.07;;;9.20;99.90;;;;;;4975979;28;20030;-81
2021/11/15 11:15:48;;;;;;;23.27;12.30;;;9.20;99.90;;;;;;4993527;28;20030;-81
2021/11/15 11:18:34;;;;;;;23.43;13.00;;;9.20;99.90;;;;;;4976429;28;20030;-81
2021/11/15 11:24:09;;;;;;;25.47;13.20;;;9.20;99.90;;;;;;4975743;28;20034;-82
2021/11/15 11:26:36;;;;;;;22.43;12.47;;;9.20;99.90;;;;;;4975945;28;20038;-81
2021/11/15 11:29:09;;;;;;;24.57;13.77;;;9.20;99.90;;;;;;4992175;28;20034;-81
2021/11/15 11:31:38;;;;;;;24.30;13.03;;;9.20;99.90;;;;;;4994239;28;20031;-81
2021/11/15 11:34:04;;;;;;;21.47;12.37;;;9.20;99.90;;;;;;4977112;28;20062;-81
2021/11/15 11:36:29;;;;;;;21.60;12.50;;;9.20;99.90;;;;;;4977191;28;20527;-80
2021/11/15 11:38:56;;;;;;;21.07;12.73;;;9.20;99.90;;;;;;4977349;28;20041;-81
2021/11/15 11:41:22;;;;;;;23.23;12.33;;;9.20;99.90;;;;;;4961159;28;20041;-85
2021/11/15 11:43:50;;;;;;;20.30;12.13;;;9.20;99.90;;;;;;4964637;28;20184;-84
2021/11/15 11:46:22;;;;;;;20.57;12.60;;;9.20;99.90;;;;;;4962428;28;20574;-82
2021/11/15 11:48:50;;;;;;;21.17;11.57;;;9.20;99.90;;;;;;4979738;28;20053;-81
2021/11/15 11:51:19;;;;;;;22.47;12.07;;;9.20;99.90;;;;;;4973114;28;20034;-84
2021/11/15 11:53:46;;;;;;;20.57;11.83;;;9.20;99.90;;;;;;4981357;28;20658;-83
2021/11/15 11:56:20;;;;;;;21.10;12.30;;;9.20;99.90;;;;;;5009504;28;20203;-83
2021/11/15 11:58:49;;;;;;;17.70;11.20;;;9.20;99.90;;;;;;4979631;28;20030;-82
2021/11/15 12:01:17;;;;;;;19.00;11.47;;;9.30;99.90;;;;;;4993381;28;20037;-83
2021/11/15 12:04:10;;;;;;;22.37;12.50;;;9.30;99.90;;;;;;4959407;28;20030;-80
2021/11/15 12:06:37;;;;;;;20.77;11.97;;;9.30;99.90;;;;;;4973978;28;20100;-81
2021/11/15 12:09:05;;;;;;;20.23;11.63;;;9.30;99.90;;;;;;4957704;28;20039;-81
2021/11/15 12:11:35;;;;;;;20.90;12.03;;;9.30;99.90;;;;;;4976529;28;20033;-81
2021/11/15 12:14:02;;;;;;;22.20;11.50;;;9.30;99.90;;;;;;4976769;28;20030;-81
2021/11/15 12:16:53;;;;;;;21.00;11.47;;;9.30;99.90;;;;;;4976794;28;20022;-81
2021/11/15 12:19:26;;;;;;;19.87;11.37;;;9.20;99.90;;;;;;4994222;28;20037;-81
2021/11/15 12:22:16;;;;;;;21.40;11.77;;;9.30;99.90;;;;;;4977022;28;20688;-80
2021/11/15 12:25:18;;;;;;;20.87;11.83;;;9.20;99.90;;;;;;4977085;28;20031;-81
2021/11/15 12:28:00;;;;;;;21.57;12.30;;;9.20;99.90;;;;;;4949151;28;20456;-84
2021/11/15 12:30:28;;;;;;;20.20;11.80;;;9.20;99.90;;;;;;4975799;28;20031;-82
2021/11/15 12:33:20;;;;;;;18.50;11.90;;;9.20;99.90;;;;;;4975231;28;20434;-81
2021/11/15 12:35:55;;;;;;;20.70;10.83;;;9.20;99.90;;;;;;4992893;28;20185;-81
2021/11/15 12:38:42;;;;;;;18.00;12.00;;;9.20;99.90;;;;;;4996097;28;20830;-87
2021/11/15 12:41:17;;;;;;;21.50;12.60;;;9.20;99.90;;;;;;4961255;28;20391;-87
2021/11/15 12:43:49;;;;;;;22.10;13.07;;;9.30;99.90;;;;;;4977151;28;20042;-87
2021/11/15 12:46:18;;;;;;;21.77;13.50;;;9.20;99.90;;;;;;4993844;28;20131;-86